createdAt,value
2018-03-25T00:00:53.890Z,19.87
2018-03-25T00:03:24.383Z,21.50
2018-03-25T00:05:54.656Z,19.97
2018-03-25T00:08:26.902Z,23.53
2018-03-25T00:10:57.751Z,22.77
2018-03-25T00:13:27.995Z,22.83
2018-03-25T00:15:58.216Z,18.63
2018-03-25T00:18:28.695Z,19.17
2018-03-25T00:20:58.946Z,22.60
2018-03-25T00:23:29.186Z,20.20
2018-03-25T00:26:00.186Z,20.13
2018-03-25T00:28:30.770Z,18.33
2018-03-25T00:31:01.262Z,20.93
2018-03-25T00:33:31.707Z,21.50
2018-03-25T00:36:02.034Z,21.30
2018-03-25T00:38:32.510Z,21.33
2018-03-25T00:41:03.820Z,21.20
2018-03-25T00:43:34.066Z,20.73
2018-03-25T00:46:05.386Z,22.53
2018-03-25T00:48:35.646Z,20.67
2018-03-25T00:51:05.950Z,20.93
2018-03-25T00:53:36.650Z,24.07
2018-03-25T00:56:07.518Z,22.03
2018-03-25T00:58:38.146Z,21.43
2018-03-25T01:01:12.920Z,21.27
2018-03-25T01:03:43.531Z,21.20
2018-03-25T01:06:14.315Z,20.93
2018-03-25T01:08:44.578Z,20.53
2018-03-25T01:11:15.126Z,20.30
2018-03-25T01:13:45.911Z,18.67
2018-03-25T01:16:16.857Z,21.57
2018-03-25T01:18:47.501Z,20.93
2018-03-25T01:21:18.042Z,20.47
2018-03-25T01:23:49.722Z,19.00
2018-03-25T01:26:19.988Z,20.23
2018-03-25T01:28:50.222Z,19.50
2018-03-25T01:31:21.869Z,21.17
2018-03-25T01:33:52.140Z,21.87
2018-03-25T01:36:22.460Z,22.57
2018-03-25T01:38:52.687Z,23.00
2018-03-25T01:41:23.285Z,20.77
2018-03-25T01:43:54.443Z,23.03
2018-03-25T01:46:24.697Z,18.70
2018-03-25T01:48:54.923Z,22.43
2018-03-25T01:51:25.649Z,22.67
2018-03-25T01:53:55.950Z,22.07
2018-03-25T01:56:26.159Z,19.40
2018-03-25T01:58:56.637Z,21.47
2018-03-25T02:01:26.847Z,22.40
2018-03-25T02:03:57.447Z,20.77
2018-03-25T02:06:27.974Z,22.37
2018-03-25T02:08:58.189Z,25.73
2018-03-25T02:11:28.449Z,23.23
2018-03-25T02:13:58.974Z,20.93
2018-03-25T02:16:29.234Z,21.50
2018-03-25T02:19:00.235Z,20.17
2018-03-25T02:21:30.774Z,22.90
2018-03-25T02:24:01.286Z,23.50
2018-03-25T02:26:31.532Z,22.97
2018-03-25T02:29:01.831Z,23.27
2018-03-25T02:31:32.331Z,23.13
2018-03-25T02:34:02.838Z,24.40
2018-03-25T02:36:33.048Z,22.70
2018-03-25T02:39:04.500Z,22.17
2018-03-25T02:41:35.528Z,21.33
2018-03-25T02:44:06.582Z,21.87
2018-03-25T02:46:37.574Z,21.47
2018-03-25T02:49:08.166Z,24.37
2018-03-25T02:51:38.638Z,23.87
2018-03-25T02:54:09.079Z,23.37
2018-03-25T02:56:39.330Z,22.40
2018-03-25T02:59:10.755Z,23.10
2018-03-25T03:01:41.017Z,24.13
2018-03-25T03:04:11.554Z,21.87
2018-03-25T03:06:41.798Z,22.63
2018-03-25T03:09:13.492Z,24.60
2018-03-25T03:11:43.679Z,25.00
2018-03-25T03:14:13.964Z,24.30
2018-03-25T03:16:44.227Z,25.53
2018-03-25T03:19:14.703Z,23.83
2018-03-25T03:21:45.390Z,23.03
2018-03-25T03:24:16.016Z,25.77
2018-03-25T03:26:46.998Z,22.03
2018-03-25T03:29:17.735Z,23.70
2018-03-25T03:31:48.778Z,24.17
2018-03-25T03:34:19.662Z,25.53
2018-03-25T03:36:50.259Z,25.33
2018-03-25T03:39:20.545Z,25.83
2018-03-25T03:41:51.542Z,22.07
2018-03-25T03:44:21.774Z,22.00
2018-03-25T03:46:52.239Z,24.77
2018-03-25T03:49:23.218Z,24.03
2018-03-25T03:51:53.461Z,24.23
2018-03-25T03:54:24.098Z,22.50
2018-03-25T03:56:54.717Z,23.40
2018-03-25T03:59:25.207Z,27.07
2018-03-25T04:01:55.714Z,27.30
2018-03-25T04:04:26.969Z,29.87
2018-03-25T04:06:57.471Z,29.57
2018-03-25T04:09:28.654Z,28.17
2018-03-25T04:11:58.915Z,26.47
2018-03-25T04:14:29.211Z,26.03
2018-03-25T04:16:59.697Z,25.10
2018-03-25T04:19:30.658Z,25.57
2018-03-25T04:22:00.859Z,24.50
2018-03-25T04:24:31.477Z,24.47
2018-03-25T04:27:12.206Z,25.53
2018-03-25T04:34:23.946Z,28.60
2018-03-25T04:36:54.193Z,29.50
2018-03-25T04:39:25.435Z,28.37
2018-03-25T04:41:56.149Z,27.37
2018-03-25T04:44:26.436Z,27.57
2018-03-25T04:46:56.913Z,28.57
2018-03-25T04:49:27.319Z,24.80
2018-03-25T04:51:58.757Z,27.73
2018-03-25T04:54:29.260Z,27.63
2018-03-25T04:56:59.469Z,29.47
2018-03-25T05:04:01.788Z,28.60
2018-03-25T05:09:10.022Z,31.33
2018-03-25T05:11:40.830Z,28.27
2018-03-25T05:14:11.086Z,31.77
2018-03-25T05:16:41.758Z,30.17
2018-03-25T05:19:12.746Z,31.43
2018-03-25T05:21:42.993Z,28.20
2018-03-25T05:24:14.429Z,29.43
2018-03-25T05:35:47.006Z,31.00
2018-03-25T05:38:17.263Z,29.10
2018-03-25T05:40:49.297Z,29.13
2018-03-25T05:43:20.206Z,28.77
2018-03-25T05:46:01.525Z,32.73
2018-03-25T05:48:32.212Z,30.90
2018-03-25T05:51:03.154Z,32.23
2018-03-25T06:02:56.374Z,31.13
2018-03-25T06:05:27.386Z,29.73
2018-03-25T06:07:58.786Z,31.03
2018-03-25T06:10:30.034Z,29.43
2018-03-25T06:13:00.288Z,29.60
2018-03-25T06:15:30.550Z,31.53
2018-03-25T06:18:01.129Z,28.47
2018-03-25T06:20:42.169Z,32.00
2018-03-25T06:23:13.162Z,32.10
2018-03-25T06:25:43.393Z,31.97
2018-03-25T06:28:13.640Z,27.73
2018-03-25T06:35:24.846Z,29.83
2018-03-25T06:37:56.256Z,30.20
2018-03-25T06:40:26.502Z,28.57
2018-03-25T06:42:56.704Z,28.53
2018-03-25T06:45:37.478Z,28.60
2018-03-25T06:48:18.041Z,29.00
2018-03-25T06:50:48.307Z,27.00
2018-03-25T06:57:50.105Z,30.53
2018-03-25T07:00:20.343Z,28.57
2018-03-25T07:02:50.883Z,61.53
2018-03-25T07:05:31.410Z,33.87
2018-03-25T07:08:02.761Z,29.10
2018-03-25T07:10:33.232Z,29.57
2018-03-25T07:13:03.530Z,29.10
2018-03-25T07:15:33.829Z,29.73
2018-03-25T07:18:04.904Z,30.00
2018-03-25T07:20:35.474Z,28.37
2018-03-25T07:25:41.198Z,28.27
2018-03-25T07:28:11.952Z,29.47
2018-03-25T07:30:42.225Z,34.20
2018-03-25T07:33:12.465Z,28.73
2018-03-25T07:40:14.158Z,28.50
2018-03-25T07:42:45.011Z,31.53
2018-03-25T07:57:08.003Z,39.80
2018-03-25T07:59:38.495Z,32.27
2018-03-25T08:02:09.031Z,29.57
2018-03-25T08:04:39.564Z,29.80
2018-03-25T08:07:21.164Z,29.37
2018-03-25T08:10:02.717Z,31.20
2018-03-25T08:17:13.999Z,27.67
2018-03-25T08:19:44.282Z,29.50
2018-03-25T08:22:16.676Z,29.70
2018-03-25T08:24:47.630Z,28.10
2018-03-25T08:27:18.169Z,29.50
2018-03-25T08:29:48.391Z,24.60
2018-03-25T08:32:18.909Z,26.83
2018-03-25T08:34:49.130Z,28.30
2018-03-25T08:37:19.365Z,27.97
2018-03-25T08:39:50.890Z,27.97
2018-03-25T08:42:21.428Z,24.97
2018-03-25T08:44:51.635Z,28.10
2018-03-25T08:56:23.925Z,26.00
2018-03-25T08:58:55.809Z,25.30
2018-03-25T09:01:26.666Z,23.87
2018-03-25T09:03:57.066Z,23.70
2018-03-25T09:20:00.231Z,21.80
2018-03-25T09:22:31.251Z,21.27
2018-03-25T09:25:01.546Z,22.23
2018-03-25T09:27:32.137Z,23.10
2018-03-25T09:30:02.467Z,21.27
2018-03-25T09:32:32.734Z,21.97
2018-03-25T09:35:03.320Z,22.93
2018-03-25T09:37:34.411Z,21.33
2018-03-25T09:44:47.127Z,23.57
2018-03-25T09:47:28.027Z,19.67
2018-03-25T09:49:58.306Z,21.53
2018-03-25T09:52:28.587Z,24.13
2018-03-25T09:54:59.682Z,19.90
2018-03-25T09:57:29.982Z,21.60
2018-03-25T10:00:00.273Z,21.27
2018-03-25T10:02:35.738Z,19.27
2018-03-25T10:05:07.446Z,17.90
2018-03-25T10:07:37.934Z,19.60
2018-03-25T10:14:39.809Z,18.10
2018-03-25T10:17:11.104Z,19.03
2018-03-25T10:19:41.668Z,19.57
2018-03-25T10:22:12.726Z,19.17
2018-03-25T10:24:43.831Z,18.43
2018-03-25T10:27:14.307Z,16.10
2018-03-25T10:29:44.788Z,17.90
2018-03-25T10:36:47.119Z,18.67
2018-03-25T10:39:17.401Z,19.87
2018-03-25T10:46:19.485Z,17.17
2018-03-25T10:49:37.347Z,16.93
2018-03-25T10:52:07.687Z,18.00
2018-03-25T10:57:15.230Z,20.03
2018-03-25T10:59:46.047Z,18.47
2018-03-25T11:02:17.506Z,17.27
2018-03-25T11:04:47.726Z,16.50
2018-03-25T11:07:28.556Z,19.03
2018-03-25T11:09:58.828Z,17.60
2018-03-25T11:12:29.430Z,19.47
2018-03-25T11:14:59.726Z,18.43
2018-03-25T11:17:40.276Z,18.17
2018-03-25T11:24:42.305Z,17.53
2018-03-25T11:27:13.883Z,18.87
2018-03-25T11:29:44.194Z,18.40
2018-03-25T11:32:14.776Z,18.07
2018-03-25T11:34:45.328Z,16.67
2018-03-25T11:37:16.392Z,20.33
2018-03-25T11:39:47.365Z,18.50
2018-03-25T11:46:49.967Z,18.60
2018-03-25T11:49:20.508Z,18.33
2018-03-25T11:56:22.599Z,18.57
2018-03-25T11:58:52.878Z,19.10
2018-03-25T12:06:05.681Z,17.10
2018-03-25T12:13:07.699Z,17.53
2018-03-25T12:15:38.257Z,19.10
2018-03-25T12:18:08.523Z,20.23
2018-03-25T12:20:38.827Z,17.30
2018-03-25T12:23:09.393Z,18.50
2018-03-25T12:25:39.954Z,18.33
2018-03-25T12:32:42.446Z,18.70
2018-03-25T12:35:23.761Z,17.27
2018-03-25T12:37:54.356Z,18.20
2018-03-25T12:40:25.365Z,18.40
2018-03-25T12:47:27.714Z,18.00
2018-03-25T12:49:59.043Z,18.93
2018-03-25T12:57:00.027Z,20.97
2018-03-25T12:59:30.597Z,19.50
2018-03-25T13:02:01.182Z,20.50
2018-03-25T13:04:41.876Z,19.67
2018-03-25T13:07:12.499Z,20.10
2018-03-25T13:09:42.857Z,20.73
2018-03-25T13:19:32.446Z,20.83
2018-03-25T13:22:02.711Z,20.37
2018-03-25T13:24:33.073Z,22.27
2018-03-25T13:27:14.047Z,20.30
2018-03-25T13:29:54.679Z,23.63
2018-03-25T13:36:56.559Z,23.73
2018-03-25T13:43:57.479Z,24.67
2018-03-25T13:46:28.068Z,23.03
2018-03-25T13:48:58.318Z,25.43
2018-03-25T13:51:39.765Z,24.07
2018-03-25T13:54:11.201Z,22.17
2018-03-25T13:56:42.163Z,24.80
2018-03-25T13:59:23.460Z,25.47
2018-03-25T14:04:29.450Z,24.93
2018-03-25T14:06:59.687Z,20.67
2018-03-25T14:09:31.251Z,23.43
2018-03-25T14:12:01.502Z,24.80
2018-03-25T14:14:32.776Z,23.07
2018-03-25T14:21:34.266Z,22.60
2018-03-25T14:24:04.603Z,24.50
2018-03-25T14:26:35.003Z,23.33
2018-03-25T14:29:05.994Z,22.60
2018-03-25T14:49:26.675Z,23.63
2018-03-25T14:51:56.938Z,23.83
2018-03-25T14:54:27.252Z,23.43
2018-03-25T14:57:08.047Z,23.10
2018-03-25T14:59:39.094Z,23.57
2018-03-25T15:02:10.048Z,28.57
2018-03-25T15:04:40.311Z,24.73
2018-03-25T15:07:10.608Z,24.87
2018-03-25T15:09:41.234Z,24.67
2018-03-25T15:12:11.546Z,25.50
2018-03-25T15:14:42.690Z,24.97
2018-03-25T15:17:13.182Z,27.17
2018-03-25T15:24:24.881Z,23.87
2018-03-25T15:26:55.150Z,23.97
2018-03-25T15:29:25.696Z,23.97
2018-03-25T15:32:07.483Z,25.40
2018-03-25T15:34:37.967Z,26.33
2018-03-25T15:37:08.510Z,24.93
2018-03-25T15:48:40.346Z,29.27
2018-03-25T15:51:11.016Z,26.07
2018-03-25T15:53:41.633Z,25.07
2018-03-25T15:56:12.800Z,22.23
2018-03-25T15:58:46.903Z,25.57
2018-03-25T16:01:17.641Z,27.60
2018-03-25T16:03:48.407Z,24.43
2018-03-25T16:06:19.748Z,27.53
2018-03-25T16:09:01.092Z,25.90
2018-03-25T16:11:32.060Z,26.43
2018-03-25T16:14:02.383Z,25.87
2018-03-25T16:19:09.046Z,25.00
2018-03-25T16:26:10.215Z,29.10
2018-03-25T16:28:43.085Z,26.23
2018-03-25T16:31:13.689Z,26.50
2018-03-25T16:33:43.996Z,27.73
2018-03-25T16:36:14.977Z,27.57
2018-03-25T16:38:45.503Z,28.23
2018-03-25T16:41:26.052Z,26.37
2018-03-25T16:44:08.001Z,28.40
2018-03-25T16:46:38.502Z,28.33
2018-03-25T16:49:09.850Z,24.23
2018-03-25T16:54:17.924Z,28.37
2018-03-25T16:56:48.271Z,27.17
2018-03-25T16:59:29.110Z,26.83
2018-03-25T17:09:17.523Z,30.17
2018-03-25T17:11:48.763Z,26.83
2018-03-25T17:14:19.336Z,26.70
2018-03-25T17:16:49.696Z,26.87
2018-03-25T17:19:21.002Z,29.03
2018-03-25T17:21:52.330Z,28.73
2018-03-25T17:24:22.542Z,29.47
2018-03-25T17:26:53.408Z,27.83
2018-03-25T17:29:26.855Z,30.53
2018-03-25T17:31:58.310Z,28.07
2018-03-25T17:34:29.071Z,28.33
2018-03-25T17:36:59.378Z,29.30
2018-03-25T17:39:29.655Z,29.40
2018-03-25T17:42:00.282Z,31.13
2018-03-25T17:44:30.627Z,31.43
2018-03-25T17:47:00.860Z,31.27
2018-03-25T17:49:31.427Z,29.43
2018-03-25T17:52:12.020Z,32.03
2018-03-25T17:54:42.669Z,34.13
2018-03-25T17:57:13.651Z,30.80
2018-03-25T17:59:44.313Z,29.23
2018-03-25T18:06:46.047Z,34.23
2018-03-25T18:09:16.278Z,31.53
2018-03-25T18:11:46.738Z,35.30
2018-03-25T18:14:17.267Z,37.67
2018-03-25T18:16:47.518Z,37.87
2018-03-25T18:19:28.898Z,35.57
2018-03-25T18:26:32.078Z,35.37
2018-03-25T18:29:02.584Z,37.37
2018-03-25T18:31:32.877Z,33.47
2018-03-25T18:34:04.002Z,32.73
2018-03-25T18:36:34.730Z,35.80
2018-03-25T18:39:06.122Z,37.77
2018-03-25T18:41:36.414Z,35.73
2018-03-25T18:44:07.266Z,35.60
2018-03-25T18:46:37.647Z,37.47
2018-03-25T18:49:09.307Z,37.50
2018-03-25T18:51:41.013Z,35.03
2018-03-25T18:54:12.791Z,36.00
2018-03-25T18:59:21.980Z,35.50
2018-03-25T19:01:54.182Z,35.63
2018-03-25T19:04:25.823Z,36.67
2018-03-25T19:06:57.968Z,42.10
2018-03-25T19:09:30.814Z,33.07
2018-03-25T19:12:02.015Z,36.93
2018-03-25T19:14:33.107Z,37.00
2018-03-25T19:17:03.420Z,32.70
2018-03-25T19:19:34.091Z,36.70
2018-03-25T19:22:05.431Z,37.10
2018-03-25T19:24:35.728Z,38.40
2018-03-25T19:27:06.350Z,37.10
2018-03-25T19:34:18.670Z,39.63
2018-03-25T19:36:49.272Z,41.70
2018-03-25T19:39:19.703Z,41.17
2018-03-25T19:41:51.988Z,38.40
2018-03-25T19:44:23.322Z,43.83
2018-03-25T19:46:54.811Z,43.00
2018-03-25T19:49:36.610Z,44.10
2018-03-25T19:56:38.092Z,49.53
2018-03-25T19:59:08.571Z,51.63
2018-03-25T20:01:51.132Z,53.20
2018-03-25T20:04:21.740Z,52.10
2018-03-25T20:06:52.496Z,53.20
2018-03-25T20:09:23.470Z,51.80
2018-03-25T20:11:56.423Z,54.57
2018-03-25T20:19:10.065Z,60.97
2018-03-25T20:21:40.384Z,62.23
2018-03-25T20:24:21.242Z,67.53
2018-03-25T20:26:52.439Z,67.03
2018-03-25T20:29:22.963Z,68.23
2018-03-25T20:31:53.518Z,70.93
2018-03-25T20:43:26.470Z,82.23
2018-03-25T20:45:57.720Z,75.03
2018-03-25T20:52:58.878Z,85.80
2018-03-25T21:00:00.709Z,83.70
2018-03-25T21:02:31.414Z,96.73
2018-03-25T21:05:01.943Z,89.37
2018-03-25T21:07:32.449Z,93.03
2018-03-25T21:10:04.021Z,101.87
2018-03-25T21:12:34.332Z,92.70
2018-03-25T21:15:04.800Z,100.27
2018-03-25T21:17:35.825Z,104.50
2018-03-25T21:20:06.140Z,104.07
2018-03-25T21:22:36.561Z,102.00
2018-03-25T21:25:07.174Z,107.03
2018-03-25T21:27:37.530Z,104.07
2018-03-25T21:30:08.811Z,109.47
2018-03-25T21:32:39.460Z,103.53
2018-03-25T21:35:10.570Z,103.97
2018-03-25T21:37:40.935Z,105.90
2018-03-25T21:40:13.864Z,105.53
2018-03-25T21:47:14.961Z,103.37
2018-03-25T21:49:47.746Z,109.03
2018-03-25T21:52:18.344Z,111.07
2018-03-25T21:54:58.958Z,108.00
2018-03-25T21:57:29.617Z,111.70
2018-03-25T22:04:32.670Z,109.50
2018-03-25T22:07:14.129Z,115.17
2018-03-25T22:09:44.658Z,114.70
2018-03-25T22:12:15.086Z,120.93
2018-03-25T22:14:45.585Z,114.07
2018-03-25T22:17:16.114Z,107.67
2018-03-25T22:19:46.422Z,122.30
2018-03-25T22:22:16.719Z,119.27
2018-03-25T22:24:47.311Z,116.70
2018-03-25T22:31:49.428Z,115.47
2018-03-25T22:34:20.066Z,120.63
2018-03-25T22:41:22.541Z,117.37
2018-03-25T22:44:03.386Z,122.17
2018-03-25T22:51:05.279Z,118.67
2018-03-25T22:53:35.493Z,125.07
2018-03-25T22:56:06.290Z,130.40
2018-03-25T22:58:37.562Z,124.37
2018-03-25T23:05:39.733Z,125.40
2018-03-25T23:12:41.090Z,123.67
2018-03-25T23:15:11.390Z,123.07
2018-03-25T23:17:41.918Z,130.37
2018-03-25T23:20:12.350Z,126.13
2018-03-25T23:31:54.496Z,119.63
2018-03-25T23:34:25.109Z,131.00
2018-03-25T23:36:55.407Z,127.60
2018-03-25T23:42:02.705Z,128.00
2018-03-25T23:44:33.811Z,130.27
2018-03-25T23:47:04.182Z,125.23
2018-03-25T23:49:35.756Z,117.17
2018-03-25T23:52:05.966Z,125.37
2018-03-25T23:54:36.935Z,131.03
2018-03-25T23:57:07.738Z,130.37
